Time;durP1;ratioP1;P1;durP2;ratioP2;P2;SDS_P1;SDS_P2;PMS_P1;PMS_P2;Temp;Humidity;BMP_temperature;BMP_pressure;BME280_temperature;BME280_humidity;BME280_pressure;Samples;Min_cycle;Max_cycle;Signal;HPM_P1;HPM_P2
2023/01/08 00:01:39;;;;;;;2.37;1.73;;;11.00;99.90;;;;;;4848645;29;20446;-88
2023/01/08 00:04:56;;;;;;;5.47;1.97;;;11.00;99.90;;;;;;4853181;29;20467;-87
2023/01/08 00:16:50;;;;;;;6.53;2.80;;;11.00;99.90;;;;;;4850893;29;20464;-88
2023/01/08 00:19:19;;;;;;;2.33;2.03;;;11.00;99.90;;;;;;4859362;29;20444;-88
2023/01/08 00:22:09;;;;;;;3.53;2.53;;;11.00;1.00;;;;;;4866941;29;20958;-87
2023/01/08 00:25:07;;;;;;;2.80;2.10;;;11.00;1.00;;;;;;4843225;29;20441;-87
2023/01/08 00:28:15;;;;;;;;;;;;;;;;;;;;;
2023/01/08 00:30:49;;;;;;;5.83;2.60;;;11.10;99.90;;;;;;4853609;29;20529;-87
2023/01/08 00:33:22;;;;;;;3.73;2.37;;;11.10;99.90;;;;;;4847923;29;20462;-88
2023/01/08 00:36:12;;;;;;;3.60;2.80;;;11.10;99.90;;;;;;4849353;29;20479;-88
2023/01/08 00:38:41;;;;;;;3.13;2.27;;;11.10;99.90;;;;;;4849821;29;20454;-87
2023/01/08 00:47:30;;;;;;;4.50;2.87;;;11.20;1.00;;;;;;4868785;23;20501;-88
2023/01/08 00:50:47;;;;;;;;;;;;;;;;;;;;;
2023/01/08 00:53:25;;;;;;;5.20;2.67;;;11.30;1.00;;;;;;4872548;29;20531;-87
2023/01/08 00:56:39;;;;;;;8.50;2.60;;;11.30;1.00;;;;;;4869408;29;20508;-87
2023/01/08 00:59:07;;;;;;;5.73;2.93;;;11.30;1.00;;;;;;4866295;29;20476;-88
2023/01/08 01:04:16;;;;;;;5.93;2.93;;;11.30;99.90;;;;;;4921281;23;20521;-87
2023/01/08 01:06:46;;;;;;;3.67;2.80;;;11.30;99.90;;;;;;4872359;29;20568;-87
2023/01/08 01:09:40;;;;;;;3.70;2.70;;;11.30;99.90;;;;;;4854407;29;20533;-87
2023/01/08 01:12:11;;;;;;;5.97;3.77;;;11.30;99.90;;;;;;4852383;29;20489;-87
2023/01/08 01:21:08;;;;;;;6.90;4.13;;;11.40;99.90;;;;;;4855804;29;20442;-87
2023/01/08 01:23:47;;;;;;;5.00;2.83;;;11.40;99.90;;;;;;4845296;29;21001;-88
2023/01/08 01:26:19;;;;;;;7.40;3.17;;;11.40;99.90;;;;;;4848050;29;20461;-87
2023/01/08 01:28:55;;;;;;;4.60;3.20;;;11.40;99.90;;;;;;4858399;29;20460;-88
2023/01/08 01:31:21;;;;;;;6.63;3.60;;;11.40;1.00;;;;;;4843504;29;20464;-87
2023/01/08 01:37:20;;;;;;;5.23;2.73;;;11.40;1.00;;;;;;4846532;29;20442;-88
2023/01/08 01:40:25;;;;;;;;;;;;;;;;;;;;;
2023/01/08 01:42:57;;;;;;;5.03;2.23;;;11.40;1.00;;;;;;4841236;29;20582;-88
2023/01/08 01:45:30;;;;;;;2.63;2.43;;;11.40;99.90;;;;;;4850685;29;20490;-88
2023/01/08 01:48:56;;;;;;;4.53;2.60;;;11.40;99.90;;;;;;4841268;29;20442;-87
2023/01/08 01:51:44;;;;;;;3.33;2.70;;;11.30;1.00;;;;;;4847510;29;20438;-88
2023/01/08 01:54:30;;;;;;;;;;;;;;;;;;;;;
2023/01/08 01:57:22;;;;;;;6.03;2.90;;;11.30;99.90;;;;;;4851822;29;21044;-87
2023/01/08 02:00:24;;;;;;;;;;;;;;;;;;;;;
2023/01/08 02:06:33;;;;;;;10.07;2.80;;;11.30;1.00;;;;;;4843374;29;20470;-89
2023/01/08 02:09:32;;;;;;;3.90;2.47;;;11.30;99.90;;;;;;4852998;29;21215;-88
2023/01/08 02:12:26;;;;;;;3.13;2.13;;;11.30;99.90;;;;;;4843588;29;20444;-88
2023/01/08 02:15:25;;;;;;;;;;;;;;;;;;;;;
2023/01/08 02:18:18;;;;;;;2.80;2.23;;;11.30;99.90;;;;;;4846033;29;20505;-88
2023/01/08 02:21:10;;;;;;;;;;;;;;;;;;;;;
2023/01/08 02:23:57;;;;;;;3.30;2.37;;;11.20;1.00;;;;;;4844090;29;21081;-88
2023/01/08 02:26:56;;;;;;;3.40;2.43;;;11.20;1.00;;;;;;4840984;29;20461;-88
2023/01/08 02:29:36;;;;;;;4.27;2.07;;;11.20;99.90;;;;;;4844423;29;20467;-87
2023/01/08 02:32:37;;;;;;;5.60;1.93;;;11.30;99.90;;;;;;4845839;29;20465;-87
2023/01/08 02:35:46;;;;;;;2.60;1.90;;;11.30;99.90;;;;;;4838418;29;20536;-87
2023/01/08 02:45:29;;;;;;;;;;;;;;;;;;;;;
2023/01/08 02:48:58;;;;;;;6.57;2.00;;;11.20;99.90;;;;;;4844325;29;20438;-88
2023/01/08 02:51:44;;;;;;;4.07;1.83;;;11.20;99.90;;;;;;4846897;29;21031;-87
2023/01/08 02:54:34;;;;;;;4.23;1.80;;;11.20;99.90;;;;;;4846420;29;20528;-89
2023/01/08 02:57:28;;;;;;;1.60;1.43;;;11.20;99.90;;;;;;4847270;29;20449;-88
2023/01/08 03:03:20;;;;;;;3.47;1.53;;;11.20;99.90;;;;;;4843425;29;20560;-89
2023/01/08 03:06:32;;;;;;;;;;;;;;;;;;;;;
2023/01/08 03:09:17;;;;;;;2.57;1.97;;;11.20;99.90;;;;;;4847182;29;20541;-88
2023/01/08 03:12:17;;;;;;;;;;;;;;;;;;;;;
2023/01/08 03:16:09;;;;;;;;;;;;;;;;;;;;;
2023/01/08 03:18:35;;;;;;;2.17;1.60;;;11.30;99.90;;;;;;4842865;29;20588;-88
2023/01/08 03:21:10;;;;;;;2.40;1.37;;;11.20;99.90;;;;;;4846335;29;20549;-88
2023/01/08 03:24:14;;;;;;;;;;;;;;;;;;;;;
2023/01/08 03:26:58;;;;;;;;;;;;;;;;;;;;;
2023/01/08 03:29:29;;;;;;;1.83;1.27;;;11.30;54.90;;;;;;4855925;29;20506;-88
2023/01/08 03:32:35;;;;;;;2.27;1.00;;;11.30;12.10;;;;;;4848818;29;20496;-88
2023/01/08 03:35:34;;;;;;;2.63;1.23;;;11.30;1.00;;;;;;4848190;29;20498;-88
2023/01/08 03:38:50;;;;;;;1.60;1.10;;;11.30;1.00;;;;;;4835588;29;20454;-89
2023/01/08 03:41:34;;;;;;;3.33;1.30;;;11.30;1.00;;;;;;4838652;29;20762;-88
2023/01/08 03:48:09;;;;;;;;;;;;;;;;;;;;;
2023/01/08 03:51:06;;;;;;;1.70;1.07;;;11.30;1.00;;;;;;4844173;29;20529;-88
2023/01/08 03:54:06;;;;;;;;;;;;;;;;;;;;;
2023/01/08 03:56:57;;;;;;;;;;;;;;;;;;;;;
2023/01/08 03:59:39;;;;;;;1.80;1.07;;;11.30;1.00;;;;;;4852289;29;20520;-88
2023/01/08 04:02:17;;;;;;;;;;;;;;;;;;;;;
2023/01/08 04:05:07;;;;;;;1.17;0.87;;;11.30;1.00;;;;;;4838761;29;20540;-87
2023/01/08 04:08:12;;;;;;;1.70;1.00;;;11.30;99.90;;;;;;4846416;29;20475;-87
2023/01/08 04:11:05;;;;;;;1.60;1.00;;;11.30;99.90;;;;;;4847385;29;20450;-87
2023/01/08 04:13:52;;;;;;;;;;;;;;;;;;;;;
2023/01/08 04:16:33;;;;;;;2.13;0.87;;;11.30;99.90;;;;;;4848069;29;20529;-88
2023/01/08 04:19:04;;;;;;;2.13;0.80;;;11.30;1.00;;;;;;4851914;29;20442;-88
2023/01/08 04:21:41;;;;;;;1.13;0.83;;;11.30;1.00;;;;;;4858327;29;20441;-87
2023/01/08 04:27:23;;;;;;;2.00;0.80;;;11.30;1.00;;;;;;4840991;29;20465;-88
2023/01/08 04:30:17;;;;;;;2.20;0.87;;;11.30;1.00;;;;;;4858287;29;20533;-88
2023/01/08 04:32:51;;;;;;;1.80;1.10;;;11.30;99.90;;;;;;4846612;29;20548;-87
2023/01/08 04:35:49;;;;;;;1.63;0.80;;;11.30;99.90;;;;;;4864401;29;20437;-87
2023/01/08 04:38:26;;;;;;;1.20;0.77;;;11.30;99.90;;;;;;4844083;29;20432;-88
2023/01/08 04:41:08;;;;;;;1.40;0.80;;;11.30;99.90;;;;;;4849473;29;20448;-87
2023/01/08 04:43:52;;;;;;;2.57;1.23;;;11.30;99.90;;;;;;4845509;29;20468;-86
2023/01/08 04:46:56;;;;;;;;;;;;;;;;;;;;;
2023/01/08 04:52:40;;;;;;;;;;;;;;;;;;;;;
2023/01/08 04:55:35;;;;;;;1.30;0.63;;;11.20;99.90;;;;;;4871525;29;20543;-87
2023/01/08 05:04:38;;;;;;;2.00;0.80;;;11.10;99.90;;;;;;4868075;29;20464;-87
2023/01/08 05:07:22;;;;;;;;;;;;;;;;;;;;;
2023/01/08 05:09:54;;;;;;;3.43;1.00;;;11.00;99.90;;;;;;4857879;29;20521;-88
2023/01/08 05:12:23;;;;;;;1.50;0.70;;;11.00;99.90;;;;;;4864230;29;20457;-87
2023/01/08 05:18:07;;;;;;;1.83;0.93;;;11.00;99.90;;;;;;4877117;29;20452;-87
2023/01/08 05:20:43;;;;;;;2.40;0.90;;;10.90;99.90;;;;;;4864304;29;20528;-87
2023/01/08 05:23:14;;;;;;;1.30;1.00;;;10.90;99.90;;;;;;4865719;29;20505;-87
2023/01/08 05:25:58;;;;;;;1.70;0.90;;;10.90;99.90;;;;;;4869756;29;20487;-88
2023/01/08 05:29:14;;;;;;;;;;;;;;;;;;;;;
2023/01/08 05:31:57;;;;;;;1.10;0.83;;;10.80;99.90;;;;;;4865492;29;20516;-86
2023/01/08 05:34:23;;;;;;;2.70;1.00;;;10.70;99.90;;;;;;4852399;29;20458;-87
2023/01/08 05:37:02;;;;;;;5.67;0.87;;;10.70;1.00;;;;;;4867187;29;20520;-88
2023/01/08 05:42:43;;;;;;;1.70;0.93;;;10.60;1.00;;;;;;4857829;29;20541;-88
2023/01/08 05:45:48;;;;;;;2.67;0.90;;;10.60;99.90;;;;;;4864637;29;20440;-88
2023/01/08 05:48:36;;;;;;;2.13;0.93;;;10.60;99.90;;;;;;4864587;29;20515;-87
2023/01/08 05:51:14;;;;;;;3.00;1.00;;;10.70;99.90;;;;;;4867508;29;20480;-88
2023/01/08 05:53:52;;;;;;;;;;;;;;;;;;;;;
2023/01/08 05:56:30;;;;;;;;;;;;;;;;;;;;;
2023/01/08 05:59:17;;;;;;;;;;;;;;;;;;;;;
2023/01/08 06:01:51;;;;;;;1.97;0.87;;;10.70;1.00;;;;;;4872391;29;20517;-87
2023/01/08 06:04:41;;;;;;;;;;;;;;;;;;;;;
2023/01/08 06:07:18;;;;;;;3.43;0.90;;;10.50;99.90;;;;;;4855082;29;20551;-87
2023/01/08 06:09:49;;;;;;;1.53;0.80;;;10.20;1.00;;;;;;4862566;29;20458;-87
2023/01/08 06:12:25;;;;;;;;;;;;;;;;;;;;;
2023/01/08 06:15:05;;;;;;;4.60;1.40;;;9.90;1.00;;;;;;4876134;29;20542;-88
2023/01/08 06:17:36;;;;;;;3.23;0.97;;;9.80;99.90;;;;;;4865991;29;20445;-87
2023/01/08 06:20:02;;;;;;;6.33;1.50;;;9.70;1.00;;;;;;4864575;29;20447;-87
2023/01/08 06:22:28;;;;;;;4.30;1.07;;;9.70;99.90;;;;;;4871393;29;20529;-86
2023/01/08 06:24:54;;;;;;;4.87;1.00;;;9.60;99.90;;;;;;4868741;29;20196;-87
2023/01/08 06:27:28;;;;;;;3.30;1.10;;;9.60;99.90;;;;;;4869656;29;20219;-87
2023/01/08 06:29:59;;;;;;;3.13;0.83;;;9.50;99.90;;;;;;4864799;29;20189;-87
2023/01/08 06:32:25;;;;;;;3.37;0.83;;;9.50;99.90;;;;;;4866826;29;20476;-88
2023/01/08 06:35:03;;;;;;;;;;;;;;;;;;;;;
2023/01/08 06:37:29;;;;;;;4.13;0.80;;;9.50;99.90;;;;;;4879326;29;20279;-88
2023/01/08 06:39:57;;;;;;;3.10;0.93;;;9.50;99.90;;;;;;4878325;29;20484;-88
2023/01/08 06:42:28;;;;;;;3.33;1.27;;;9.50;99.90;;;;;;4866604;29;20268;-88
2023/01/08 06:45:25;;;;;;;2.43;1.00;;;9.50;99.90;;;;;;4873250;29;20532;-87
2023/01/08 06:48:01;;;;;;;2.53;0.90;;;9.50;72.80;;;;;;4858912;29;20453;-88
2023/01/08 06:50:28;;;;;;;4.30;1.00;;;9.40;1.00;;;;;;4875503;29;20445;-88
2023/01/08 06:52:56;;;;;;;2.53;0.80;;;9.40;1.00;;;;;;4864346;29;20541;-87
2023/01/08 06:55:25;;;;;;;3.43;0.90;;;9.40;1.00;;;;;;4875590;29;20448;-87
2023/01/08 06:58:10;;;;;;;;;;;;;;;;;;;;;
2023/01/08 07:00:37;;;;;;;3.33;1.00;;;9.40;1.00;;;;;;4873740;29;20521;-87
2023/01/08 07:03:15;;;;;;;4.40;0.90;;;9.40;1.00;;;;;;4863649;29;20504;-88
2023/01/08 07:05:49;;;;;;;7.70;1.30;;;9.40;1.00;;;;;;4870015;29;20480;-87
2023/01/08 07:08:22;;;;;;;4.40;1.03;;;9.40;1.00;;;;;;4872020;29;20536;-87
2023/01/08 07:11:01;;;;;;;;;;;;;;;;;;;;;
2023/01/08 07:13:42;;;;;;;4.30;1.00;;;9.40;99.90;;;;;;4868775;29;20562;-87
2023/01/08 07:16:19;;;;;;;2.03;0.93;;;9.40;99.90;;;;;;4858976;29;20454;-88
2023/01/08 07:18:45;;;;;;;2.70;1.00;;;9.40;7.00;;;;;;4869598;29;20795;-87
2023/01/08 07:21:20;;;;;;;2.03;1.17;;;9.40;1.00;;;;;;4872482;29;20448;-87
2023/01/08 07:23:48;;;;;;;5.20;1.20;;;9.50;1.00;;;;;;4865800;29;20267;-88
2023/01/08 07:26:38;;;;;;;;;;;;;;;;;;;;;
2023/01/08 07:29:05;;;;;;;3.90;1.27;;;9.50;99.90;;;;;;4870613;29;20544;-87
2023/01/08 07:32:36;;;;;;;3.07;1.07;;;9.40;99.90;;;;;;4865102;29;20437;-87
2023/01/08 09:52:33;;;;;;;3.53;1.00;;;14.20;1.00;;;;;;4854433;29;20894;-86
2023/01/08 09:59:39;;;;;;;;;;;;;;;;;;;;;
2023/01/08 10:05:55;;;;;;;3.10;1.30;;;14.10;1.00;;;;;;4849596;29;20494;-85
2023/01/08 10:08:21;;;;;;;5.13;1.13;;;14.20;1.00;;;;;;4866034;29;20827;-88
2023/01/08 10:21:16;;;;;;;3.70;1.67;;;14.60;1.00;;;;;;4862288;29;20461;-86
2023/01/08 10:24:50;;;;;;;;;;;;;;;;;;;;;
2023/01/08 10:35:32;;;;;;;;;;;;;;;;;;;;;
2023/01/08 10:38:56;;;;;;;;;;;;;;;;;;;;;
2023/01/08 11:32:23;;;;;;;1.00;0.50;;;12.30;1.00;;;;;;4862836;29;20933;-87
2023/01/08 11:35:15;;;;;;;1.33;0.77;;;11.80;1.00;;;;;;4860348;29;20454;-85
2023/01/08 11:37:52;;;;;;;3.37;0.70;;;11.80;1.00;;;;;;4851286;29;20919;-87
2023/01/08 11:40:47;;;;;;;1.20;0.60;;;11.90;38.30;;;;;;4843803;29;21002;-86
2023/01/08 11:43:39;;;;;;;3.30;0.80;;;11.90;43.20;;;;;;4855773;29;20433;-86
2023/01/08 11:46:57;;;;;;;1.03;0.60;;;11.80;75.40;;;;;;4862675;29;20960;-86
2023/01/08 11:53:47;;;;;;;1.00;0.60;;;12.60;33.60;;;;;;4876954;29;20537;-87
2023/01/08 11:56:58;;;;;;;3.47;0.80;;;13.50;1.00;;;;;;4862082;29;20434;-86
2023/01/08 12:03:52;;;;;;;;;;;;;;;;;;;;;
2023/01/08 12:06:53;;;;;;;1.50;0.87;;;18.90;99.90;;;;;;4862223;29;20488;-88
2023/01/08 12:13:54;;;;;;;;;;;;;;;;;;;;;
2023/01/08 12:23:44;;;;;;;1.53;0.90;;;22.00;99.90;;;;;;4851558;29;20453;-87
2023/01/08 12:30:26;;;;;;;;;;;;;;;;;;;;;
2023/01/08 12:33:37;;;;;;;2.13;0.80;;;19.00;99.90;;;;;;4831575;29;20445;-87
2023/01/08 12:36:41;;;;;;;1.50;0.70;;;18.30;99.90;;;;;;4858433;29;20472;-88
2023/01/08 12:39:19;;;;;;;1.37;0.73;;;17.50;99.90;;;;;;4844478;29;20429;-86
2023/01/08 12:42:10;;;;;;;3.43;0.90;;;17.00;99.90;;;;;;4855997;29;20424;-85
2023/01/08 12:44:55;;;;;;;1.73;1.10;;;17.10;99.90;;;;;;4861561;29;20430;-86
2023/01/08 12:51:55;;;;;;;;;;;;;;;;;;;;;
2023/01/08 13:02:06;;;;;;;;;;;;;;;;;;;;;
2023/01/08 13:04:56;;;;;;;2.47;0.93;;;22.10;99.90;;;;;;4856893;29;21021;-87
2023/01/08 13:08:39;;;;;;;;;;;;;;;;;;;;;
2023/01/08 13:11:42;;;;;;;;;;;;;;;;;;;;;
2023/01/08 13:15:01;;;;;;;;;;;;;;;;;;;;;
2023/01/08 13:18:07;;;;;;;1.50;0.60;;;22.00;99.90;;;;;;4861272;29;20852;-87
2023/01/08 13:21:20;;;;;;;;;;;;;;;;;;;;;
2023/01/08 13:24:43;;;;;;;;;;;;;;;;;;;;;
2023/01/08 13:27:36;;;;;;;1.30;0.70;;;21.30;99.90;;;;;;4860805;29;20481;-87
2023/01/08 13:31:08;;;;;;;;;;;;;;;;;;;;;
2023/01/08 13:33:58;;;;;;;;;;;;;;;;;;;;;
2023/01/08 13:37:20;;;;;;;3.07;2.30;;;20.30;99.90;;;;;;4855149;29;20414;-86
2023/01/08 13:40:39;;;;;;;;;;;;;;;;;;;;;
2023/01/08 13:43:52;;;;;;;2.60;1.00;;;20.50;99.90;;;;;;4857123;29;20950;-88
2023/01/08 13:47:04;;;;;;;;;;;;;;;;;;;;;
2023/01/08 13:52:56;;;;;;;;;;;;;;;;;;;;;
2023/01/08 13:56:20;;;;;;;;;;;;;;;;;;;;;
2023/01/08 13:59:11;;;;;;;1.80;1.00;;;16.20;99.90;;;;;;4842625;29;21084;-85
2023/01/08 14:02:28;;;;;;;1.63;0.80;;;15.70;99.90;;;;;;4856241;29;20426;-86
2023/01/08 14:04:58;;;;;;;1.67;0.70;;;15.40;99.90;;;;;;4829821;29;20469;-86
2023/01/08 14:07:46;;;;;;;;;;;;;;;;;;;;;
2023/01/08 14:10:33;;;;;;;;;;;;;;;;;;;;;
2023/01/08 14:16:46;;;;;;;1.60;0.70;;;14.60;99.90;;;;;;4842575;29;20429;-85
2023/01/08 14:19:45;;;;;;;1.10;0.70;;;14.40;99.90;;;;;;4840765;29;20433;-85
2023/01/08 14:22:43;;;;;;;1.77;0.63;;;14.20;99.90;;;;;;4842473;29;20443;-86
2023/01/08 14:25:27;;;;;;;2.30;0.90;;;14.10;99.90;;;;;;4848022;29;20499;-86
2023/01/08 14:28:06;;;;;;;2.40;1.50;;;13.90;99.90;;;;;;4859478;29;20447;-86
2023/01/08 14:31:25;;;;;;;;;;;;;;;;;;;;;
2023/01/08 14:37:11;;;;;;;;;;;;;;;;;;;;;
2023/01/08 14:39:50;;;;;;;2.00;0.90;;;13.90;99.90;;;;;;4860611;29;20416;-87
2023/01/08 14:48:42;;;;;;;1.83;0.70;;;13.50;99.90;;;;;;4848108;29;20444;-86
2023/01/08 14:55:06;;;;;;;;;;;;;;;;;;;;;
2023/01/08 14:58:20;;;;;;;5.70;0.70;;;13.00;99.90;;;;;;4845233;29;20418;-86
2023/01/08 15:01:32;;;;;;;2.13;0.73;;;12.90;99.90;;;;;;4833954;29;20438;-86
2023/01/08 15:08:44;;;;;;;3.30;1.40;;;12.70;99.90;;;;;;4846432;29;20848;-86
2023/01/08 15:11:10;;;;;;;2.90;1.10;;;12.60;99.90;;;;;;4846647;29;20581;-86
2023/01/08 15:13:39;;;;;;;1.67;0.83;;;12.50;99.90;;;;;;4850814;29;20465;-86
2023/01/08 15:16:08;;;;;;;2.17;1.40;;;12.40;99.90;;;;;;4857833;29;20507;-87
2023/01/08 15:19:16;;;;;;;6.73;1.27;;;12.50;99.90;;;;;;4857702;29;20445;-86
2023/01/08 15:22:49;;;;;;;;;;;;;;;;;;;;;
2023/01/08 15:29:35;;;;;;;;;;;;;;;;;;;;;
2023/01/08 15:38:26;;;;;;;;;;;;;;;;;;;;;
2023/01/08 23:06:36;;;;;;;3.30;1.20;;;8.90;1.00;;;;;;2853711;27;21180;-84
2023/01/08 23:09:02;;;;;;;3.87;1.80;;;8.90;1.00;;;;;;4884531;29;20478;-84
2023/01/08 23:11:27;;;;;;;7.77;1.50;;;8.90;1.00;;;;;;4882732;29;20562;-84
2023/01/08 23:13:53;;;;;;;1.97;0.90;;;8.90;1.00;;;;;;4890521;29;20444;-86
2023/01/08 23:16:24;;;;;;;2.50;0.87;;;9.00;1.00;;;;;;4891356;29;20207;-84
2023/01/08 23:18:49;;;;;;;0.90;0.60;;;9.00;1.00;;;;;;4895232;29;20987;-84
2023/01/08 23:21:18;;;;;;;6.90;1.20;;;8.90;1.00;;;;;;4885570;29;20516;-84
2023/01/08 23:23:44;;;;;;;1.57;0.80;;;8.90;1.00;;;;;;4886017;29;20217;-84
2023/01/08 23:26:18;;;;;;;7.63;0.70;;;8.90;1.00;;;;;;4887765;29;20490;-87
2023/01/08 23:28:47;;;;;;;1.37;0.70;;;8.90;1.00;;;;;;4892382;29;20934;-85
2023/01/08 23:31:16;;;;;;;2.53;0.80;;;8.90;1.00;;;;;;4873958;29;20464;-84
2023/01/08 23:33:42;;;;;;;1.30;0.60;;;8.90;1.00;;;;;;4879864;29;20500;-85
2023/01/08 23:36:08;;;;;;;2.60;0.60;;;8.80;1.00;;;;;;4887687;29;20475;-85
2023/01/08 23:38:34;;;;;;;2.03;0.63;;;8.80;1.00;;;;;;4892745;29;20301;-84
2023/01/08 23:41:03;;;;;;;1.20;0.60;;;8.80;1.00;;;;;;4883497;29;21178;-83
2023/01/08 23:43:28;;;;;;;0.90;0.50;;;8.70;1.00;;;;;;4882706;29;20188;-84
2023/01/08 23:45:54;;;;;;;1.47;0.63;;;8.70;1.00;;;;;;4886343;29;21024;-84
2023/01/08 23:48:20;;;;;;;2.20;0.60;;;8.70;1.00;;;;;;4882548;29;20285;-84
2023/01/08 23:50:45;;;;;;;3.53;0.60;;;8.70;1.00;;;;;;4893182;29;20187;-85
2023/01/08 23:53:11;;;;;;;1.73;0.70;;;8.70;1.00;;;;;;4895921;29;20179;-83
2023/01/08 23:55:36;;;;;;;0.90;0.60;;;8.60;1.00;;;;;;4884505;29;20180;-84
2023/01/08 23:58:02;;;;;;;1.70;0.80;;;8.60;1.00;;;;;;4888373;29;20225;-85
